sensor_id;sensor_type;location;lat;lon;timestamp;P1;durP1;ratioP1;P2;durP2;ratioP2
13204;SDS011;6667;52.634;9.226;2023-03-01T00:00:39;5.93;;;4.27;;
13204;SDS011;6667;52.634;9.226;2023-03-01T00:03:06;6.90;;;4.17;;
13204;SDS011;6667;52.634;9.226;2023-03-01T00:05:34;6.03;;;4.17;;
13204;SDS011;6667;52.634;9.226;2023-03-01T00:08:00;5.57;;;4.00;;
13204;SDS011;6667;52.634;9.226;2023-03-01T00:10:27;6.60;;;3.93;;
13204;SDS011;6667;52.634;9.226;2023-03-01T00:12:54;5.10;;;3.63;;
13204;SDS011;6667;52.634;9.226;2023-03-01T00:15:21;7.13;;;3.70;;
13204;SDS011;6667;52.634;9.226;2023-03-01T00:17:48;8.37;;;4.07;;
13204;SDS011;6667;52.634;9.226;2023-03-01T00:20:14;5.60;;;3.73;;
13204;SDS011;6667;52.634;9.226;2023-03-01T00:22:43;4.23;;;3.13;;
13204;SDS011;6667;52.634;9.226;2023-03-01T00:25:09;4.30;;;3.13;;
13204;SDS011;6667;52.634;9.226;2023-03-01T00:27:36;6.23;;;3.30;;
13204;SDS011;6667;52.634;9.226;2023-03-01T00:30:03;3.73;;;2.77;;
13204;SDS011;6667;52.634;9.226;2023-03-01T00:32:30;6.47;;;2.90;;
13204;SDS011;6667;52.634;9.226;2023-03-01T00:34:57;4.93;;;2.70;;
13204;SDS011;6667;52.634;9.226;2023-03-01T00:37:24;4.80;;;3.07;;
13204;SDS011;6667;52.634;9.226;2023-03-01T00:39:52;7.53;;;3.83;;
13204;SDS011;6667;52.634;9.226;2023-03-01T00:42:18;5.83;;;3.73;;
13204;SDS011;6667;52.634;9.226;2023-03-01T00:44:45;6.30;;;3.77;;
13204;SDS011;6667;52.634;9.226;2023-03-01T00:47:12;6.23;;;3.40;;
13204;SDS011;6667;52.634;9.226;2023-03-01T00:49:39;3.90;;;3.20;;
13204;SDS011;6667;52.634;9.226;2023-03-01T00:52:05;7.80;;;5.27;;
13204;SDS011;6667;52.634;9.226;2023-03-01T00:54:32;5.93;;;4.00;;
13204;SDS011;6667;52.634;9.226;2023-03-01T00:57:00;6.43;;;3.47;;
13204;SDS011;6667;52.634;9.226;2023-03-01T00:59:27;5.97;;;3.50;;
13204;SDS011;6667;52.634;9.226;2023-03-01T01:01:53;7.73;;;3.10;;
13204;SDS011;6667;52.634;9.226;2023-03-01T01:04:20;8.73;;;3.53;;
13204;SDS011;6667;52.634;9.226;2023-03-01T01:06:47;4.87;;;3.60;;
13204;SDS011;6667;52.634;9.226;2023-03-01T01:09:14;6.20;;;3.77;;
13204;SDS011;6667;52.634;9.226;2023-03-01T01:11:43;4.20;;;3.43;;
13204;SDS011;6667;52.634;9.226;2023-03-01T01:14:11;5.90;;;3.90;;
13204;SDS011;6667;52.634;9.226;2023-03-01T01:16:38;4.97;;;3.30;;
13204;SDS011;6667;52.634;9.226;2023-03-01T01:19:05;6.13;;;2.93;;
13204;SDS011;6667;52.634;9.226;2023-03-01T01:21:32;7.97;;;3.00;;
13204;SDS011;6667;52.634;9.226;2023-03-01T01:23:59;4.87;;;3.03;;
13204;SDS011;6667;52.634;9.226;2023-03-01T01:26:27;5.30;;;3.00;;
13204;SDS011;6667;52.634;9.226;2023-03-01T01:28:55;5.07;;;2.60;;
13204;SDS011;6667;52.634;9.226;2023-03-01T01:31:24;4.57;;;3.20;;
13204;SDS011;6667;52.634;9.226;2023-03-01T01:33:53;4.53;;;3.00;;
13204;SDS011;6667;52.634;9.226;2023-03-01T01:36:20;4.97;;;3.00;;
13204;SDS011;6667;52.634;9.226;2023-03-01T01:38:47;3.93;;;3.07;;
13204;SDS011;6667;52.634;9.226;2023-03-01T01:41:14;6.27;;;3.60;;
13204;SDS011;6667;52.634;9.226;2023-03-01T01:43:41;5.67;;;3.37;;
13204;SDS011;6667;52.634;9.226;2023-03-01T01:46:14;5.00;;;2.67;;
13204;SDS011;6667;52.634;9.226;2023-03-01T01:48:50;4.77;;;2.93;;
13204;SDS011;6667;52.634;9.226;2023-03-01T01:51:22;5.87;;;2.83;;
13204;SDS011;6667;52.634;9.226;2023-03-01T01:53:52;4.40;;;3.57;;
13204;SDS011;6667;52.634;9.226;2023-03-01T01:56:21;4.13;;;2.67;;
13204;SDS011;6667;52.634;9.226;2023-03-01T01:58:51;7.03;;;2.80;;
13204;SDS011;6667;52.634;9.226;2023-03-01T02:01:19;5.37;;;3.50;;
13204;SDS011;6667;52.634;9.226;2023-03-01T02:03:46;4.77;;;3.17;;
13204;SDS011;6667;52.634;9.226;2023-03-01T02:06:17;6.40;;;2.93;;
13204;SDS011;6667;52.634;9.226;2023-03-01T02:08:48;6.57;;;4.47;;
13204;SDS011;6667;52.634;9.226;2023-03-01T02:11:17;3.80;;;2.73;;
13204;SDS011;6667;52.634;9.226;2023-03-01T02:13:45;6.00;;;2.83;;
13204;SDS011;6667;52.634;9.226;2023-03-01T02:16:14;4.47;;;2.77;;
13204;SDS011;6667;52.634;9.226;2023-03-01T02:18:41;4.23;;;2.73;;
13204;SDS011;6667;52.634;9.226;2023-03-01T02:21:13;4.77;;;2.93;;
13204;SDS011;6667;52.634;9.226;2023-03-01T02:23:49;3.67;;;2.50;;
13204;SDS011;6667;52.634;9.226;2023-03-01T02:26:18;4.70;;;2.77;;
13204;SDS011;6667;52.634;9.226;2023-03-01T02:28:51;3.83;;;3.17;;
13204;SDS011;6667;52.634;9.226;2023-03-01T02:31:18;4.33;;;2.53;;
13204;SDS011;6667;52.634;9.226;2023-03-01T02:34:04;7.97;;;2.77;;
13204;SDS011;6667;52.634;9.226;2023-03-01T02:36:34;3.00;;;2.37;;
13204;SDS011;6667;52.634;9.226;2023-03-01T02:39:03;4.40;;;2.70;;
13204;SDS011;6667;52.634;9.226;2023-03-01T02:41:32;5.23;;;3.07;;
13204;SDS011;6667;52.634;9.226;2023-03-01T02:44:04;5.73;;;2.57;;
13204;SDS011;6667;52.634;9.226;2023-03-01T02:46:31;5.30;;;2.77;;
13204;SDS011;6667;52.634;9.226;2023-03-01T02:48:58;4.27;;;2.70;;
13204;SDS011;6667;52.634;9.226;2023-03-01T02:51:27;6.40;;;2.87;;
13204;SDS011;6667;52.634;9.226;2023-03-01T02:54:12;4.97;;;2.60;;
13204;SDS011;6667;52.634;9.226;2023-03-01T02:56:46;3.00;;;2.57;;
13204;SDS011;6667;52.634;9.226;2023-03-01T02:59:15;4.40;;;2.47;;
13204;SDS011;6667;52.634;9.226;2023-03-01T03:01:43;3.10;;;2.80;;
13204;SDS011;6667;52.634;9.226;2023-03-01T03:04:13;3.37;;;2.43;;
13204;SDS011;6667;52.634;9.226;2023-03-01T03:06:42;6.17;;;3.33;;
13204;SDS011;6667;52.634;9.226;2023-03-01T03:09:09;3.20;;;2.47;;
13204;SDS011;6667;52.634;9.226;2023-03-01T03:11:36;3.43;;;2.60;;
13204;SDS011;6667;52.634;9.226;2023-03-01T03:14:04;5.63;;;2.70;;
13204;SDS011;6667;52.634;9.226;2023-03-01T03:16:38;5.23;;;2.93;;
13204;SDS011;6667;52.634;9.226;2023-03-01T03:19:06;4.40;;;2.70;;
13204;SDS011;6667;52.634;9.226;2023-03-01T03:21:33;5.43;;;2.53;;
13204;SDS011;6667;52.634;9.226;2023-03-01T03:24:00;4.47;;;2.90;;
13204;SDS011;6667;52.634;9.226;2023-03-01T03:26:27;5.37;;;2.43;;
13204;SDS011;6667;52.634;9.226;2023-03-01T03:28:54;3.57;;;2.30;;
13204;SDS011;6667;52.634;9.226;2023-03-01T03:31:21;4.17;;;2.50;;
13204;SDS011;6667;52.634;9.226;2023-03-01T03:33:50;4.23;;;2.57;;
13204;SDS011;6667;52.634;9.226;2023-03-01T03:36:17;5.67;;;2.80;;
13204;SDS011;6667;52.634;9.226;2023-03-01T03:38:44;5.10;;;2.80;;
13204;SDS011;6667;52.634;9.226;2023-03-01T03:41:12;4.03;;;2.60;;
13204;SDS011;6667;52.634;9.226;2023-03-01T03:43:39;3.57;;;2.63;;
13204;SDS011;6667;52.634;9.226;2023-03-01T03:46:07;4.30;;;2.50;;
13204;SDS011;6667;52.634;9.226;2023-03-01T03:48:36;6.10;;;2.60;;
13204;SDS011;6667;52.634;9.226;2023-03-01T03:51:05;4.80;;;2.83;;
13204;SDS011;6667;52.634;9.226;2023-03-01T03:53:32;4.37;;;2.57;;
13204;SDS011;6667;52.634;9.226;2023-03-01T03:55:59;5.67;;;3.23;;
13204;SDS011;6667;52.634;9.226;2023-03-01T03:58:26;3.03;;;2.20;;
13204;SDS011;6667;52.634;9.226;2023-03-01T04:00:53;3.30;;;2.77;;
13204;SDS011;6667;52.634;9.226;2023-03-01T04:03:22;3.93;;;2.83;;
13204;SDS011;6667;52.634;9.226;2023-03-01T04:05:50;2.63;;;2.13;;
13204;SDS011;6667;52.634;9.226;2023-03-01T04:08:19;2.73;;;2.43;;
13204;SDS011;6667;52.634;9.226;2023-03-01T04:10:47;3.13;;;2.70;;
13204;SDS011;6667;52.634;9.226;2023-03-01T04:13:16;3.13;;;2.50;;
13204;SDS011;6667;52.634;9.226;2023-03-01T04:15:45;5.07;;;3.20;;
13204;SDS011;6667;52.634;9.226;2023-03-01T04:18:13;4.37;;;2.60;;
13204;SDS011;6667;52.634;9.226;2023-03-01T04:20:41;2.97;;;2.33;;
13204;SDS011;6667;52.634;9.226;2023-03-01T04:23:08;3.77;;;2.90;;
13204;SDS011;6667;52.634;9.226;2023-03-01T04:25:40;3.30;;;2.77;;
13204;SDS011;6667;52.634;9.226;2023-03-01T04:28:11;4.40;;;2.50;;
13204;SDS011;6667;52.634;9.226;2023-03-01T04:30:38;5.13;;;2.50;;
13204;SDS011;6667;52.634;9.226;2023-03-01T04:33:06;9.13;;;5.23;;
13204;SDS011;6667;52.634;9.226;2023-03-01T04:35:35;4.43;;;2.73;;
13204;SDS011;6667;52.634;9.226;2023-03-01T04:38:02;6.10;;;2.73;;
13204;SDS011;6667;52.634;9.226;2023-03-01T04:40:30;5.07;;;2.80;;
13204;SDS011;6667;52.634;9.226;2023-03-01T04:42:58;3.80;;;2.73;;
13204;SDS011;6667;52.634;9.226;2023-03-01T04:45:24;3.50;;;2.73;;
13204;SDS011;6667;52.634;9.226;2023-03-01T04:47:52;6.37;;;3.43;;
13204;SDS011;6667;52.634;9.226;2023-03-01T04:50:20;4.37;;;3.40;;
13204;SDS011;6667;52.634;9.226;2023-03-01T04:52:48;6.47;;;3.50;;
13204;SDS011;6667;52.634;9.226;2023-03-01T04:55:15;4.67;;;3.47;;
13204;SDS011;6667;52.634;9.226;2023-03-01T04:57:42;5.03;;;3.13;;
13204;SDS011;6667;52.634;9.226;2023-03-01T05:00:11;4.00;;;3.10;;
13204;SDS011;6667;52.634;9.226;2023-03-01T05:02:47;4.43;;;3.20;;
13204;SDS011;6667;52.634;9.226;2023-03-01T05:05:18;4.40;;;3.50;;
13204;SDS011;6667;52.634;9.226;2023-03-01T05:07:45;5.70;;;3.03;;
13204;SDS011;6667;52.634;9.226;2023-03-01T05:10:12;5.77;;;3.60;;
13204;SDS011;6667;52.634;9.226;2023-03-01T05:12:38;4.10;;;3.03;;
13204;SDS011;6667;52.634;9.226;2023-03-01T05:15:06;3.77;;;3.17;;
13204;SDS011;6667;52.634;9.226;2023-03-01T05:17:34;4.20;;;2.80;;
13204;SDS011;6667;52.634;9.226;2023-03-01T05:20:01;3.97;;;2.83;;
13204;SDS011;6667;52.634;9.226;2023-03-01T05:22:32;3.53;;;3.10;;
13204;SDS011;6667;52.634;9.226;2023-03-01T05:24:58;4.50;;;2.70;;
13204;SDS011;6667;52.634;9.226;2023-03-01T05:27:25;3.93;;;2.77;;
13204;SDS011;6667;52.634;9.226;2023-03-01T05:29:51;4.47;;;2.70;;
13204;SDS011;6667;52.634;9.226;2023-03-01T05:32:18;4.93;;;3.30;;
13204;SDS011;6667;52.634;9.226;2023-03-01T05:34:47;4.57;;;3.00;;
13204;SDS011;6667;52.634;9.226;2023-03-01T05:37:13;4.13;;;2.70;;
13204;SDS011;6667;52.634;9.226;2023-03-01T05:39:40;6.07;;;3.03;;
13204;SDS011;6667;52.634;9.226;2023-03-01T05:42:09;5.13;;;3.03;;
13204;SDS011;6667;52.634;9.226;2023-03-01T05:44:37;4.33;;;3.20;;
13204;SDS011;6667;52.634;9.226;2023-03-01T05:47:04;3.87;;;3.00;;
13204;SDS011;6667;52.634;9.226;2023-03-01T05:49:31;5.07;;;3.27;;
13204;SDS011;6667;52.634;9.226;2023-03-01T05:51:59;6.60;;;3.30;;
13204;SDS011;6667;52.634;9.226;2023-03-01T05:54:26;5.10;;;3.13;;
13204;SDS011;6667;52.634;9.226;2023-03-01T05:56:52;3.50;;;2.83;;
13204;SDS011;6667;52.634;9.226;2023-03-01T05:59:19;8.63;;;3.30;;
13204;SDS011;6667;52.634;9.226;2023-03-01T06:01:46;4.40;;;3.20;;
13204;SDS011;6667;52.634;9.226;2023-03-01T06:04:12;4.57;;;3.40;;
13204;SDS011;6667;52.634;9.226;2023-03-01T06:06:39;6.30;;;3.70;;
13204;SDS011;6667;52.634;9.226;2023-03-01T06:09:07;6.03;;;3.73;;
13204;SDS011;6667;52.634;9.226;2023-03-01T06:11:34;7.13;;;3.33;;
13204;SDS011;6667;52.634;9.226;2023-03-01T06:14:01;7.63;;;3.57;;
13204;SDS011;6667;52.634;9.226;2023-03-01T06:16:28;6.23;;;4.17;;
13204;SDS011;6667;52.634;9.226;2023-03-01T06:18:55;5.57;;;3.57;;
13204;SDS011;6667;52.634;9.226;2023-03-01T06:21:22;6.77;;;4.60;;
13204;SDS011;6667;52.634;9.226;2023-03-01T06:23:48;7.23;;;4.27;;
13204;SDS011;6667;52.634;9.226;2023-03-01T06:26:18;10.17;;;3.90;;
13204;SDS011;6667;52.634;9.226;2023-03-01T06:28:44;10.40;;;4.20;;
13204;SDS011;6667;52.634;9.226;2023-03-01T06:31:11;9.73;;;4.03;;
13204;SDS011;6667;52.634;9.226;2023-03-01T06:33:38;8.13;;;4.13;;
13204;SDS011;6667;52.634;9.226;2023-03-01T06:36:05;8.63;;;4.40;;
13204;SDS011;6667;52.634;9.226;2023-03-01T06:38:33;7.67;;;4.50;;
13204;SDS011;6667;52.634;9.226;2023-03-01T06:41:00;8.53;;;4.77;;
13204;SDS011;6667;52.634;9.226;2023-03-01T06:43:28;6.13;;;3.80;;
13204;SDS011;6667;52.634;9.226;2023-03-01T06:45:55;5.73;;;4.10;;
13204;SDS011;6667;52.634;9.226;2023-03-01T06:48:21;9.07;;;4.57;;
13204;SDS011;6667;52.634;9.226;2023-03-01T06:50:48;7.80;;;4.30;;
13204;SDS011;6667;52.634;9.226;2023-03-01T06:53:15;6.37;;;4.43;;
13204;SDS011;6667;52.634;9.226;2023-03-01T06:55:41;9.77;;;4.77;;
13204;SDS011;6667;52.634;9.226;2023-03-01T06:58:08;7.00;;;4.73;;
13204;SDS011;6667;52.634;9.226;2023-03-01T07:00:37;11.57;;;4.67;;
13204;SDS011;6667;52.634;9.226;2023-03-01T07:03:05;10.03;;;4.90;;
13204;SDS011;6667;52.634;9.226;2023-03-01T07:05:32;8.47;;;4.47;;
13204;SDS011;6667;52.634;9.226;2023-03-01T07:07:59;9.57;;;4.97;;
13204;SDS011;6667;52.634;9.226;2023-03-01T07:10:26;10.67;;;5.13;;
13204;SDS011;6667;52.634;9.226;2023-03-01T07:12:54;10.43;;;5.93;;
13204;SDS011;6667;52.634;9.226;2023-03-01T07:15:21;9.93;;;5.47;;
13204;SDS011;6667;52.634;9.226;2023-03-01T07:17:49;8.13;;;4.40;;
13204;SDS011;6667;52.634;9.226;2023-03-01T07:20:16;7.93;;;5.00;;
13204;SDS011;6667;52.634;9.226;2023-03-01T07:22:43;8.27;;;5.23;;
13204;SDS011;6667;52.634;9.226;2023-03-01T07:25:10;9.63;;;6.07;;
13204;SDS011;6667;52.634;9.226;2023-03-01T07:27:37;10.70;;;5.47;;
13204;SDS011;6667;52.634;9.226;2023-03-01T07:30:04;7.97;;;4.60;;
13204;SDS011;6667;52.634;9.226;2023-03-01T07:32:31;7.03;;;5.07;;
13204;SDS011;6667;52.634;9.226;2023-03-01T07:34:59;6.50;;;4.37;;
13204;SDS011;6667;52.634;9.226;2023-03-01T07:37:26;8.73;;;4.80;;
13204;SDS011;6667;52.634;9.226;2023-03-01T07:39:53;10.60;;;4.97;;
13204;SDS011;6667;52.634;9.226;2023-03-01T07:42:19;5.93;;;4.37;;
13204;SDS011;6667;52.634;9.226;2023-03-01T07:44:46;8.67;;;5.63;;
13204;SDS011;6667;52.634;9.226;2023-03-01T07:47:13;9.93;;;6.07;;
13204;SDS011;6667;52.634;9.226;2023-03-01T07:49:39;7.47;;;5.13;;
13204;SDS011;6667;52.634;9.226;2023-03-01T07:52:07;10.53;;;5.63;;
13204;SDS011;6667;52.634;9.226;2023-03-01T07:54:36;8.47;;;5.70;;
13204;SDS011;6667;52.634;9.226;2023-03-01T07:57:02;10.20;;;5.37;;
13204;SDS011;6667;52.634;9.226;2023-03-01T07:59:29;7.30;;;4.43;;
13204;SDS011;6667;52.634;9.226;2023-03-01T08:01:56;6.37;;;4.80;;
13204;SDS011;6667;52.634;9.226;2023-03-01T08:04:23;7.40;;;4.87;;
13204;SDS011;6667;52.634;9.226;2023-03-01T08:06:51;8.57;;;5.30;;
13204;SDS011;6667;52.634;9.226;2023-03-01T08:09:19;7.73;;;4.90;;
13204;SDS011;6667;52.634;9.226;2023-03-01T08:11:47;8.87;;;5.27;;
13204;SDS011;6667;52.634;9.226;2023-03-01T08:14:13;7.17;;;5.20;;
13204;SDS011;6667;52.634;9.226;2023-03-01T08:16:40;7.53;;;4.47;;
13204;SDS011;6667;52.634;9.226;2023-03-01T08:19:07;8.37;;;4.30;;
13204;SDS011;6667;52.634;9.226;2023-03-01T08:21:35;11.53;;;5.50;;
13204;SDS011;6667;52.634;9.226;2023-03-01T08:24:02;8.07;;;5.40;;
13204;SDS011;6667;52.634;9.226;2023-03-01T08:26:31;8.93;;;4.37;;
13204;SDS011;6667;52.634;9.226;2023-03-01T08:28:59;8.03;;;4.77;;
13204;SDS011;6667;52.634;9.226;2023-03-01T08:31:27;9.97;;;4.83;;
13204;SDS011;6667;52.634;9.226;2023-03-01T08:33:55;7.67;;;4.10;;
13204;SDS011;6667;52.634;9.226;2023-03-01T08:36:25;7.30;;;4.07;;
13204;SDS011;6667;52.634;9.226;2023-03-01T08:38:53;6.27;;;3.90;;
13204;SDS011;6667;52.634;9.226;2023-03-01T08:41:20;9.00;;;3.80;;
13204;SDS011;6667;52.634;9.226;2023-03-01T08:43:48;6.23;;;4.50;;
13204;SDS011;6667;52.634;9.226;2023-03-01T08:46:14;6.17;;;4.57;;
13204;SDS011;6667;52.634;9.226;2023-03-01T08:48:41;6.20;;;3.97;;
13204;SDS011;6667;52.634;9.226;2023-03-01T08:51:08;5.47;;;4.43;;
13204;SDS011;6667;52.634;9.226;2023-03-01T08:53:37;7.50;;;4.50;;
13204;SDS011;6667;52.634;9.226;2023-03-01T08:56:04;6.60;;;4.37;;
13204;SDS011;6667;52.634;9.226;2023-03-01T08:58:31;6.03;;;4.10;;
13204;SDS011;6667;52.634;9.226;2023-03-01T09:00:59;7.70;;;4.60;;
13204;SDS011;6667;52.634;9.226;2023-03-01T09:03:26;7.10;;;4.67;;
13204;SDS011;6667;52.634;9.226;2023-03-01T09:05:53;6.43;;;4.60;;
13204;SDS011;6667;52.634;9.226;2023-03-01T09:08:26;6.77;;;4.53;;
13204;SDS011;6667;52.634;9.226;2023-03-01T09:10:53;5.37;;;4.30;;
13204;SDS011;6667;52.634;9.226;2023-03-01T09:13:20;6.13;;;4.00;;
13204;SDS011;6667;52.634;9.226;2023-03-01T09:15:48;7.63;;;4.70;;
13204;SDS011;6667;52.634;9.226;2023-03-01T09:18:16;7.40;;;5.03;;
13204;SDS011;6667;52.634;9.226;2023-03-01T09:20:43;5.63;;;3.83;;
13204;SDS011;6667;52.634;9.226;2023-03-01T09:23:10;5.10;;;3.90;;
13204;SDS011;6667;52.634;9.226;2023-03-01T09:25:36;6.43;;;4.23;;
13204;SDS011;6667;52.634;9.226;2023-03-01T09:28:03;6.67;;;4.57;;
13204;SDS011;6667;52.634;9.226;2023-03-01T09:30:30;7.70;;;4.10;;
13204;SDS011;6667;52.634;9.226;2023-03-01T09:32:56;5.40;;;4.20;;
13204;SDS011;6667;52.634;9.226;2023-03-01T09:35:24;7.40;;;3.83;;
13204;SDS011;6667;52.634;9.226;2023-03-01T09:37:51;5.47;;;3.87;;
13204;SDS011;6667;52.634;9.226;2023-03-01T09:42:46;5.83;;;4.27;;
13204;SDS011;6667;52.634;9.226;2023-03-01T09:45:21;5.97;;;4.03;;
13204;SDS011;6667;52.634;9.226;2023-03-01T09:47:52;7.80;;;3.83;;
13204;SDS011;6667;52.634;9.226;2023-03-01T09:50:21;6.43;;;4.07;;
13204;SDS011;6667;52.634;9.226;2023-03-01T09:52:52;5.73;;;3.77;;
13204;SDS011;6667;52.634;9.226;2023-03-01T09:55:26;6.00;;;3.90;;
13204;SDS011;6667;52.634;9.226;2023-03-01T09:57:58;5.10;;;3.60;;
13204;SDS011;6667;52.634;9.226;2023-03-01T10:00:33;5.07;;;3.77;;
13204;SDS011;6667;52.634;9.226;2023-03-01T10:03:08;5.03;;;3.50;;
13204;SDS011;6667;52.634;9.226;2023-03-01T10:05:44;4.40;;;3.50;;
13204;SDS011;6667;52.634;9.226;2023-03-01T10:08:31;5.83;;;3.37;;
13204;SDS011;6667;52.634;9.226;2023-03-01T10:11:04;5.00;;;3.43;;
13204;SDS011;6667;52.634;9.226;2023-03-01T10:13:34;6.30;;;3.40;;
13204;SDS011;6667;52.634;9.226;2023-03-01T10:16:10;4.97;;;3.63;;
13204;SDS011;6667;52.634;9.226;2023-03-01T10:18:41;5.83;;;3.53;;
13204;SDS011;6667;52.634;9.226;2023-03-01T10:21:17;5.37;;;3.27;;
13204;SDS011;6667;52.634;9.226;2023-03-01T10:23:46;4.80;;;3.70;;
13204;SDS011;6667;52.634;9.226;2023-03-01T10:29:05;4.60;;;3.20;;
13204;SDS011;6667;52.634;9.226;2023-03-01T10:31:37;3.83;;;2.87;;
13204;SDS011;6667;52.634;9.226;2023-03-01T10:34:10;5.47;;;3.57;;
13204;SDS011;6667;52.634;9.226;2023-03-01T10:36:39;4.47;;;2.90;;
13204;SDS011;6667;52.634;9.226;2023-03-01T10:39:12;3.37;;;2.40;;
13204;SDS011;6667;52.634;9.226;2023-03-01T10:41:57;3.67;;;3.00;;
13204;SDS011;6667;52.634;9.226;2023-03-01T10:44:43;6.13;;;3.20;;
13204;SDS011;6667;52.634;9.226;2023-03-01T10:47:15;3.53;;;3.23;;
13204;SDS011;6667;52.634;9.226;2023-03-01T10:49:58;3.23;;;2.27;;
13204;SDS011;6667;52.634;9.226;2023-03-01T10:52:27;4.30;;;2.17;;
13204;SDS011;6667;52.634;9.226;2023-03-01T10:54:58;3.00;;;2.13;;
13204;SDS011;6667;52.634;9.226;2023-03-01T10:57:31;5.23;;;2.33;;
13204;SDS011;6667;52.634;9.226;2023-03-01T11:02:47;2.80;;;2.00;;
13204;SDS011;6667;52.634;9.226;2023-03-01T11:05:18;3.63;;;2.30;;
13204;SDS011;6667;52.634;9.226;2023-03-01T11:07:50;2.93;;;2.10;;
13204;SDS011;6667;52.634;9.226;2023-03-01T11:10:20;3.73;;;2.43;;
13204;SDS011;6667;52.634;9.226;2023-03-01T11:12:48;2.87;;;2.00;;
13204;SDS011;6667;52.634;9.226;2023-03-01T11:15:20;4.37;;;2.57;;
13204;SDS011;6667;52.634;9.226;2023-03-01T11:17:50;3.23;;;2.20;;
13204;SDS011;6667;52.634;9.226;2023-03-01T11:20:19;3.73;;;2.40;;
13204;SDS011;6667;52.634;9.226;2023-03-01T11:22:52;3.20;;;2.23;;
13204;SDS011;6667;52.634;9.226;2023-03-01T11:25:23;5.70;;;2.47;;
13204;SDS011;6667;52.634;9.226;2023-03-01T11:27:51;5.33;;;2.80;;
13204;SDS011;6667;52.634;9.226;2023-03-01T11:30:20;3.87;;;2.43;;
13204;SDS011;6667;52.634;9.226;2023-03-01T11:32:54;3.77;;;2.27;;
13204;SDS011;6667;52.634;9.226;2023-03-01T11:35:42;2.70;;;2.20;;
13204;SDS011;6667;52.634;9.226;2023-03-01T11:38:19;3.57;;;2.10;;
13204;SDS011;6667;52.634;9.226;2023-03-01T11:40:51;4.03;;;2.23;;
13204;SDS011;6667;52.634;9.226;2023-03-01T11:43:26;5.17;;;2.00;;
13204;SDS011;6667;52.634;9.226;2023-03-01T11:46:02;3.70;;;2.20;;
13204;SDS011;6667;52.634;9.226;2023-03-01T11:48:49;3.23;;;2.40;;
13204;SDS011;6667;52.634;9.226;2023-03-01T11:51:25;3.70;;;1.90;;
13204;SDS011;6667;52.634;9.226;2023-03-01T11:54:12;3.43;;;2.20;;
13204;SDS011;6667;52.634;9.226;2023-03-01T11:56:47;2.30;;;2.00;;
13204;SDS011;6667;52.634;9.226;2023-03-01T12:02:40;3.00;;;1.97;;
13204;SDS011;6667;52.634;9.226;2023-03-01T12:05:20;2.60;;;1.90;;
13204;SDS011;6667;52.634;9.226;2023-03-01T12:07:55;4.33;;;2.50;;
13204;SDS011;6667;52.634;9.226;2023-03-01T12:10:33;2.40;;;1.90;;
13204;SDS011;6667;52.634;9.226;2023-03-01T12:13:18;2.23;;;1.97;;
13204;SDS011;6667;52.634;9.226;2023-03-01T12:16:01;2.50;;;1.80;;
13204;SDS011;6667;52.634;9.226;2023-03-01T12:18:42;3.00;;;2.10;;
13204;SDS011;6667;52.634;9.226;2023-03-01T12:21:28;2.53;;;1.93;;
13204;SDS011;6667;52.634;9.226;2023-03-01T12:24:10;3.50;;;2.07;;
13204;SDS011;6667;52.634;9.226;2023-03-01T12:26:52;1.97;;;1.73;;
13204;SDS011;6667;52.634;9.226;2023-03-01T12:29:30;2.83;;;1.97;;
13204;SDS011;6667;52.634;9.226;2023-03-01T12:32:03;2.93;;;2.33;;
13204;SDS011;6667;52.634;9.226;2023-03-01T12:34:49;2.50;;;2.10;;
13204;SDS011;6667;52.634;9.226;2023-03-01T12:37:34;3.00;;;2.50;;
13204;SDS011;6667;52.634;9.226;2023-03-01T12:40:17;3.17;;;2.03;;
13204;SDS011;6667;52.634;9.226;2023-03-01T12:42:55;3.30;;;2.10;;
13204;SDS011;6667;52.634;9.226;2023-03-01T12:45:38;2.20;;;1.80;;
13204;SDS011;6667;52.634;9.226;2023-03-01T12:48:22;5.20;;;2.30;;
13204;SDS011;6667;52.634;9.226;2023-03-01T12:50:57;2.00;;;1.80;;
13204;SDS011;6667;52.634;9.226;2023-03-01T12:53:28;2.93;;;1.70;;
13204;SDS011;6667;52.634;9.226;2023-03-01T12:55:58;2.93;;;2.00;;
13204;SDS011;6667;52.634;9.226;2023-03-01T12:58:28;2.50;;;1.90;;
13204;SDS011;6667;52.634;9.226;2023-03-01T13:01:08;4.07;;;2.07;;
13204;SDS011;6667;52.634;9.226;2023-03-01T13:03:48;3.53;;;2.33;;
13204;SDS011;6667;52.634;9.226;2023-03-01T13:06:29;3.73;;;2.17;;
13204;SDS011;6667;52.634;9.226;2023-03-01T13:09:04;3.00;;;2.10;;
13204;SDS011;6667;52.634;9.226;2023-03-01T13:11:36;2.00;;;1.70;;
13204;SDS011;6667;52.634;9.226;2023-03-01T13:17:20;2.67;;;2.43;;
13204;SDS011;6667;52.634;9.226;2023-03-01T13:19:56;2.50;;;2.00;;
13204;SDS011;6667;52.634;9.226;2023-03-01T13:22:28;2.80;;;2.07;;
13204;SDS011;6667;52.634;9.226;2023-03-01T13:25:00;2.07;;;1.80;;
13204;SDS011;6667;52.634;9.226;2023-03-01T13:27:29;2.87;;;2.23;;
13204;SDS011;6667;52.634;9.226;2023-03-01T13:29:56;2.97;;;2.27;;
13204;SDS011;6667;52.634;9.226;2023-03-01T13:32:26;3.50;;;2.20;;
13204;SDS011;6667;52.634;9.226;2023-03-01T13:34:54;2.50;;;2.10;;
13204;SDS011;6667;52.634;9.226;2023-03-01T13:37:28;2.20;;;1.93;;
13204;SDS011;6667;52.634;9.226;2023-03-01T13:45:57;4.33;;;2.50;;
13204;SDS011;6667;52.634;9.226;2023-03-01T13:48:26;2.40;;;2.07;;
13204;SDS011;6667;52.634;9.226;2023-03-01T13:50:57;3.30;;;2.33;;
13204;SDS011;6667;52.634;9.226;2023-03-01T13:53:29;2.67;;;1.97;;
13204;SDS011;6667;52.634;9.226;2023-03-01T13:55:58;2.93;;;2.20;;
13204;SDS011;6667;52.634;9.226;2023-03-01T13:58:28;4.27;;;2.50;;
13204;SDS011;6667;52.634;9.226;2023-03-01T14:00:57;3.03;;;1.83;;
13204;SDS011;6667;52.634;9.226;2023-03-01T14:03:27;3.03;;;2.03;;
13204;SDS011;6667;52.634;9.226;2023-03-01T14:06:00;2.80;;;2.05;;
13204;SDS011;6667;52.634;9.226;2023-03-01T14:08:31;2.13;;;1.93;;
13204;SDS011;6667;52.634;9.226;2023-03-01T14:11:03;2.35;;;1.90;;
13204;SDS011;6667;52.634;9.226;2023-03-01T14:13:54;3.07;;;2.47;;
13204;SDS011;6667;52.634;9.226;2023-03-01T14:16:35;5.00;;;1.70;;
13204;SDS011;6667;52.634;9.226;2023-03-01T14:19:15;4.30;;;3.07;;
13204;SDS011;6667;52.634;9.226;2023-03-01T14:21:45;3.08;;;2.00;;
13204;SDS011;6667;52.634;9.226;2023-03-01T14:24:20;2.47;;;1.80;;
13204;SDS011;6667;52.634;9.226;2023-03-01T14:26:48;2.37;;;1.77;;
13204;SDS011;6667;52.634;9.226;2023-03-01T14:29:23;2.70;;;1.80;;
13204;SDS011;6667;52.634;9.226;2023-03-01T14:31:51;2.00;;;1.57;;
13204;SDS011;6667;52.634;9.226;2023-03-01T14:34:20;3.10;;;1.93;;
13204;SDS011;6667;52.634;9.226;2023-03-01T14:36:47;4.17;;;2.30;;
13204;SDS011;6667;52.634;9.226;2023-03-01T14:39:18;2.70;;;1.80;;
13204;SDS011;6667;52.634;9.226;2023-03-01T14:41:46;2.50;;;1.73;;
13204;SDS011;6667;52.634;9.226;2023-03-01T14:44:15;2.77;;;1.53;;
13204;SDS011;6667;52.634;9.226;2023-03-01T14:46:45;2.37;;;1.83;;
13204;SDS011;6667;52.634;9.226;2023-03-01T14:49:13;4.57;;;1.70;;
13204;SDS011;6667;52.634;9.226;2023-03-01T14:51:46;1.73;;;1.57;;
13204;SDS011;6667;52.634;9.226;2023-03-01T14:54:20;3.10;;;1.87;;
13204;SDS011;6667;52.634;9.226;2023-03-01T14:56:49;4.13;;;1.50;;
13204;SDS011;6667;52.634;9.226;2023-03-01T14:59:18;5.63;;;1.77;;
13204;SDS011;6667;52.634;9.226;2023-03-01T15:01:47;2.00;;;1.90;;
13204;SDS011;6667;52.634;9.226;2023-03-01T15:04:14;2.40;;;1.60;;
13204;SDS011;6667;52.634;9.226;2023-03-01T15:06:41;2.63;;;1.47;;
13204;SDS011;6667;52.634;9.226;2023-03-01T15:09:12;2.10;;;1.60;;
13204;SDS011;6667;52.634;9.226;2023-03-01T15:11:41;3.93;;;1.57;;
13204;SDS011;6667;52.634;9.226;2023-03-01T15:17:19;2.27;;;1.60;;
13204;SDS011;6667;52.634;9.226;2023-03-01T15:19:52;1.87;;;1.63;;
13204;SDS011;6667;52.634;9.226;2023-03-01T15:22:20;1.57;;;1.47;;
13204;SDS011;6667;52.634;9.226;2023-03-01T15:24:49;2.00;;;1.43;;
13204;SDS011;6667;52.634;9.226;2023-03-01T15:27:16;2.63;;;1.80;;
13204;SDS011;6667;52.634;9.226;2023-03-01T15:29:48;2.87;;;2.07;;
13204;SDS011;6667;52.634;9.226;2023-03-01T15:32:24;2.17;;;1.80;;
13204;SDS011;6667;52.634;9.226;2023-03-01T15:34:52;2.20;;;2.00;;
13204;SDS011;6667;52.634;9.226;2023-03-01T15:40:19;3.63;;;2.00;;
13204;SDS011;6667;52.634;9.226;2023-03-01T15:42:49;2.97;;;1.97;;